Time;durP1;ratioP1;P1;durP2;ratioP2;P2;SDS_P1;SDS_P2;PMS_P1;PMS_P2;Temp;Humidity;BMP_temperature;BMP_pressure;BME280_temperature;BME280_humidity;BME280_pressure;Samples;Min_cycle;Max_cycle;Signal;HPM_P1;HPM_P2
2022/03/28 00:00:38;;;;;;;11.9;6.800001;;;;;;;3.29;39.55273;96032.34;;;;
2022/03/28 00:01:39;;;;;;;11.9;6.800001;;;;;;;3.29;39.55273;96032.34;;;;
2022/03/28 00:02:41;;;;;;;11.9;6.800001;;;;;;;3.29;39.55273;96032.34;;;;
2022/03/28 00:03:42;;;;;;;11.9;6.800001;;;;;;;3.29;39.55273;96032.34;;;;
2022/03/28 00:04:42;;;;;;;11.9;6.800001;;;;;;;3.29;39.55273;96032.34;;;;
2022/03/28 00:05:43;;;;;;;11.9;6.800001;;;;;;;3.29;39.55273;96032.34;;;;
2022/03/28 00:06:43;;;;;;;11.4;7.05;;;;;;;3.17;39.81738;96025.7;;;;
2022/03/28 00:07:44;;;;;;;11.4;7.05;;;;;;;3.17;39.81738;96025.7;;;;
2022/03/28 00:08:44;;;;;;;11.4;7.05;;;;;;;3.17;39.81738;96025.7;;;;
2022/03/28 00:09:45;;;;;;;11.4;7.05;;;;;;;3.17;39.81738;96025.7;;;;
2022/03/28 00:10:45;;;;;;;11.4;7.05;;;;;;;3.17;39.81738;96025.7;;;;
2022/03/28 00:11:46;;;;;;;11.4;7.05;;;;;;;3.17;39.81738;96025.7;;;;
2022/03/28 00:12:46;;;;;;;11.4;7.05;;;;;;;3.17;39.81738;96025.7;;;;
2022/03/28 00:13:47;;;;;;;11.4;7.05;;;;;;;3.17;39.81738;96025.7;;;;
2022/03/28 00:14:47;;;;;;;11.4;7.05;;;;;;;3.17;39.81738;96025.7;;;;
2022/03/28 00:15:48;;;;;;;11.4;7.05;;;;;;;3.17;39.81738;96025.7;;;;
2022/03/28 00:16:48;;;;;;;11.4;7.05;;;;;;;3.17;39.81738;96025.7;;;;
2022/03/28 00:17:49;;;;;;;16.85;9.25;;;;;;;3.07;40.05273;96011.74;;;;
2022/03/28 00:18:49;;;;;;;16.85;9.25;;;;;;;3.07;40.05273;96011.74;;;;
2022/03/28 00:19:50;;;;;;;16.85;9.25;;;;;;;3.07;40.05273;96011.74;;;;
2022/03/28 00:20:53;;;;;;;16.85;9.25;;;;;;;3.07;40.05273;96011.74;;;;
2022/03/28 00:21:53;;;;;;;16.85;9.25;;;;;;;3.07;40.05273;96011.74;;;;
2022/03/28 00:22:54;;;;;;;16.85;9.25;;;;;;;3.07;40.05273;96011.74;;;;
2022/03/28 00:23:54;;;;;;;16.85;9.25;;;;;;;3.07;40.05273;96011.74;;;;
2022/03/28 00:24:55;;;;;;;16.85;9.25;;;;;;;3.07;40.05273;96011.74;;;;
2022/03/28 00:25:55;;;;;;;16.85;9.25;;;;;;;3.07;40.05273;96011.74;;;;
2022/03/28 00:26:56;;;;;;;16.85;9.25;;;;;;;3.07;40.05273;96011.74;;;;
2022/03/28 00:27:56;;;;;;;16.55;8.799999;;;;;;;2.94;40.31738;96004.71;;;;
2022/03/28 00:28:57;;;;;;;16.55;8.799999;;;;;;;2.94;40.31738;96004.71;;;;
2022/03/28 00:29:57;;;;;;;16.55;8.799999;;;;;;;2.94;40.31738;96004.71;;;;
2022/03/28 00:30:58;;;;;;;16.55;8.799999;;;;;;;2.94;40.31738;96004.71;;;;
2022/03/28 00:31:58;;;;;;;16.55;8.799999;;;;;;;2.94;40.31738;96004.71;;;;
2022/03/28 00:32:59;;;;;;;16.55;8.799999;;;;;;;2.94;40.31738;96004.71;;;;
2022/03/28 00:34:00;;;;;;;16.55;8.799999;;;;;;;2.94;40.31738;96004.71;;;;
2022/03/28 00:35:00;;;;;;;16.55;8.799999;;;;;;;2.94;40.31738;96004.71;;;;
2022/03/28 00:36:01;;;;;;;16.55;8.799999;;;;;;;2.94;40.31738;96004.71;;;;
2022/03/28 00:37:02;;;;;;;16.55;8.799999;;;;;;;2.94;40.31738;96004.71;;;;
2022/03/28 00:38:03;;;;;;;16.55;8.799999;;;;;;;2.94;40.31738;96004.71;;;;
2022/03/28 00:39:04;;;;;;;12.6;7.85;;;;;;;2.84;40.55176;96000.57;;;;
2022/03/28 00:40:05;;;;;;;12.6;7.85;;;;;;;2.84;40.55176;96000.57;;;;
2022/03/28 00:41:06;;;;;;;12.6;7.85;;;;;;;2.84;40.55176;96000.57;;;;
2022/03/28 00:42:07;;;;;;;12.6;7.85;;;;;;;2.84;40.55176;96000.57;;;;
2022/03/28 00:43:08;;;;;;;12.6;7.85;;;;;;;2.84;40.55176;96000.57;;;;
2022/03/28 00:44:10;;;;;;;12.6;7.85;;;;;;;2.84;40.55176;96000.57;;;;
2022/03/28 00:45:10;;;;;;;12.6;7.85;;;;;;;2.84;40.55176;96000.57;;;;
2022/03/28 00:46:11;;;;;;;12.6;7.85;;;;;;;2.84;40.55176;96000.57;;;;
2022/03/28 00:47:11;;;;;;;12.6;7.85;;;;;;;2.84;40.55176;96000.57;;;;
2022/03/28 00:48:12;;;;;;;12.6;7.85;;;;;;;2.84;40.55176;96000.57;;;;
2022/03/28 00:49:13;;;;;;;15.05;7.500001;;;;;;;2.66;40.86328;95994.09;;;;
2022/03/28 00:50:14;;;;;;;15.05;7.500001;;;;;;;2.66;40.86328;95994.09;;;;
2022/03/28 00:51:15;;;;;;;15.05;7.500001;;;;;;;2.66;40.86328;95994.09;;;;
2022/03/28 00:52:16;;;;;;;15.05;7.500001;;;;;;;2.66;40.86328;95994.09;;;;
2022/03/28 00:53:17;;;;;;;15.05;7.500001;;;;;;;2.66;40.86328;95994.09;;;;
2022/03/28 00:54:17;;;;;;;15.05;7.500001;;;;;;;2.66;40.86328;95994.09;;;;
2022/03/28 00:55:18;;;;;;;15.05;7.500001;;;;;;;2.66;40.86328;95994.09;;;;
2022/03/28 00:56:19;;;;;;;15.05;7.500001;;;;;;;2.66;40.86328;95994.09;;;;
2022/03/28 00:57:19;;;;;;;15.05;7.500001;;;;;;;2.66;40.86328;95994.09;;;;
2022/03/28 00:58:20;;;;;;;15.05;7.500001;;;;;;;2.66;40.86328;95994.09;;;;
2022/03/28 00:59:21;;;;;;;15.05;7.500001;;;;;;;2.66;40.86328;95994.09;;;;
2022/03/28 01:00:22;;;;;;;11.9;7.150001;;;;;;;2.53;41.16895;95986.72;;;;
2022/03/28 01:01:23;;;;;;;11.9;7.150001;;;;;;;2.53;41.16895;95986.72;;;;
2022/03/28 01:02:23;;;;;;;11.9;7.150001;;;;;;;2.53;41.16895;95986.72;;;;
2022/03/28 01:03:24;;;;;;;11.9;7.150001;;;;;;;2.53;41.16895;95986.72;;;;
2022/03/28 01:04:25;;;;;;;11.9;7.150001;;;;;;;2.53;41.16895;95986.72;;;;
2022/03/28 01:05:26;;;;;;;11.9;7.150001;;;;;;;2.53;41.16895;95986.72;;;;
2022/03/28 01:06:27;;;;;;;11.9;7.150001;;;;;;;2.53;41.16895;95986.72;;;;
2022/03/28 01:07:28;;;;;;;11.9;7.150001;;;;;;;2.53;41.16895;95986.72;;;;
2022/03/28 01:08:28;;;;;;;11.9;7.150001;;;;;;;2.53;41.16895;95986.72;;;;
2022/03/28 01:09:29;;;;;;;11.9;7.150001;;;;;;;2.53;41.16895;95986.72;;;;
2022/03/28 01:10:30;;;;;;;14.35;7.849999;;;;;;;2.41;41.43262;95968.49;;;;
2022/03/28 01:11:32;;;;;;;14.35;7.849999;;;;;;;2.41;41.43262;95968.49;;;;
2022/03/28 01:12:34;;;;;;;14.35;7.849999;;;;;;;2.41;41.43262;95968.49;;;;
2022/03/28 01:13:35;;;;;;;14.35;7.849999;;;;;;;2.41;41.43262;95968.49;;;;
2022/03/28 01:14:37;;;;;;;14.35;7.849999;;;;;;;2.41;41.43262;95968.49;;;;
2022/03/28 01:15:39;;;;;;;14.35;7.849999;;;;;;;2.41;41.43262;95968.49;;;;
2022/03/28 01:18:05;;;;;;;14.35;7.849999;;;;;;;2.41;41.43262;95968.49;;;;
2022/03/28 01:19:06;;;;;;;14.35;7.849999;;;;;;;2.41;41.43262;95968.49;;;;
2022/03/28 01:20:06;;;;;;;14.35;7.849999;;;;;;;2.41;41.43262;95968.49;;;;
2022/03/28 01:21:08;;;;;;;14.35;7.849999;;;;;;;2.41;41.43262;95968.49;;;;
2022/03/28 01:22:09;;;;;;;14.35;7.849999;;;;;;;2.41;41.43262;95968.49;;;;
2022/03/28 01:23:10;;;;;;;14.35;7.849999;;;;;;;2.41;41.43262;95968.49;;;;
2022/03/28 01:24:11;;;;;;;14.35;7.849999;;;;;;;2.41;41.43262;95968.49;;;;
2022/03/28 01:25:11;;;;;;;14.35;7.849999;;;;;;;2.41;41.43262;95968.49;;;;
2022/03/28 01:26:12;;;;;;;14.35;7.849999;;;;;;;2.41;41.43262;95968.49;;;;
2022/03/28 01:27:14;;;;;;;14.35;7.849999;;;;;;;2.41;41.43262;95968.49;;;;
2022/03/28 01:28:15;;;;;;;14.35;7.849999;;;;;;;2.41;41.43262;95968.49;;;;
2022/03/28 01:29:17;;;;;;;14.35;7.849999;;;;;;;2.41;41.43262;95968.49;;;;
2022/03/28 01:30:17;;;;;;;14.35;7.849999;;;;;;;2.41;41.43262;95968.49;;;;
2022/03/28 01:31:18;;;;;;;14.35;7.849999;;;;;;;2.41;41.43262;95968.49;;;;
2022/03/28 01:32:18;;;;;;;16.9;8.699999;;;;;;;2.22;41.93457;95958.62;;;;
2022/03/28 01:33:19;;;;;;;16.9;8.699999;;;;;;;2.22;41.93457;95958.62;;;;
2022/03/28 01:34:20;;;;;;;16.9;8.699999;;;;;;;2.22;41.93457;95958.62;;;;
2022/03/28 01:35:21;;;;;;;16.9;8.699999;;;;;;;2.22;41.93457;95958.62;;;;
2022/03/28 01:36:26;;;;;;;16.9;8.699999;;;;;;;2.22;41.93457;95958.62;;;;
2022/03/28 01:37:29;;;;;;;16.9;8.699999;;;;;;;2.22;41.93457;95958.62;;;;
2022/03/28 01:38:30;;;;;;;16.9;8.699999;;;;;;;2.22;41.93457;95958.62;;;;
2022/03/28 01:39:30;;;;;;;16.9;8.699999;;;;;;;2.22;41.93457;95958.62;;;;
2022/03/28 01:40:32;;;;;;;16.9;8.699999;;;;;;;2.22;41.93457;95958.62;;;;
2022/03/28 01:41:36;;;;;;;16.9;8.699999;;;;;;;2.22;41.93457;95958.62;;;;
2022/03/28 01:42:36;;;;;;;13.25;8.35;;;;;;;2.14;42.16992;95951.06;;;;
2022/03/28 01:43:37;;;;;;;13.25;8.35;;;;;;;2.14;42.16992;95951.06;;;;
2022/03/28 01:44:37;;;;;;;13.25;8.35;;;;;;;2.14;42.16992;95951.06;;;;
2022/03/28 01:45:38;;;;;;;13.25;8.35;;;;;;;2.14;42.16992;95951.06;;;;
2022/03/28 01:46:39;;;;;;;13.25;8.35;;;;;;;2.14;42.16992;95951.06;;;;
2022/03/28 01:47:40;;;;;;;13.25;8.35;;;;;;;2.14;42.16992;95951.06;;;;
2022/03/28 01:48:41;;;;;;;13.25;8.35;;;;;;;2.14;42.16992;95951.06;;;;
2022/03/28 01:49:41;;;;;;;13.25;8.35;;;;;;;2.14;42.16992;95951.06;;;;
2022/03/28 01:50:42;;;;;;;13.25;8.35;;;;;;;2.14;42.16992;95951.06;;;;
2022/03/28 01:51:42;;;;;;;13.25;8.35;;;;;;;2.14;42.16992;95951.06;;;;
2022/03/28 01:52:43;;;;;;;13.25;8.35;;;;;;;2.14;42.16992;95951.06;;;;
2022/03/28 01:53:45;;;;;;;13.6;8.200001;;;;;;;2.08;42.41699;95941.58;;;;
2022/03/28 01:54:45;;;;;;;13.6;8.200001;;;;;;;2.08;42.41699;95941.58;;;;
2022/03/28 01:55:46;;;;;;;13.6;8.200001;;;;;;;2.08;42.41699;95941.58;;;;
2022/03/28 01:56:46;;;;;;;13.6;8.200001;;;;;;;2.08;42.41699;95941.58;;;;
2022/03/28 01:57:47;;;;;;;13.6;8.200001;;;;;;;2.08;42.41699;95941.58;;;;
2022/03/28 01:58:47;;;;;;;13.6;8.200001;;;;;;;2.08;42.41699;95941.58;;;;
2022/03/28 01:59:48;;;;;;;13.6;8.200001;;;;;;;2.08;42.41699;95941.58;;;;
2022/03/28 02:00:48;;;;;;;13.6;8.200001;;;;;;;2.08;42.41699;95941.58;;;;
2022/03/28 02:01:49;;;;;;;13.6;8.200001;;;;;;;2.08;42.41699;95941.58;;;;
2022/03/28 02:02:50;;;;;;;13.6;8.200001;;;;;;;2.08;42.41699;95941.58;;;;
2022/03/28 02:03:51;;;;;;;12.5;7.799999;;;;;;;2.04;42.64648;95938.92;;;;
2022/03/28 02:04:51;;;;;;;12.5;7.799999;;;;;;;2.04;42.64648;95938.92;;;;
2022/03/28 02:05:52;;;;;;;12.5;7.799999;;;;;;;2.04;42.64648;95938.92;;;;
2022/03/28 02:06:52;;;;;;;12.5;7.799999;;;;;;;2.04;42.64648;95938.92;;;;
2022/03/28 02:07:53;;;;;;;12.5;7.799999;;;;;;;2.04;42.64648;95938.92;;;;
2022/03/28 02:08:53;;;;;;;12.5;7.799999;;;;;;;2.04;42.64648;95938.92;;;;
2022/03/28 02:09:55;;;;;;;12.5;7.799999;;;;;;;2.04;42.64648;95938.92;;;;
2022/03/28 02:10:56;;;;;;;12.5;7.799999;;;;;;;2.04;42.64648;95938.92;;;;
2022/03/28 02:11:56;;;;;;;12.5;7.799999;;;;;;;2.04;42.64648;95938.92;;;;
2022/03/28 02:12:57;;;;;;;12.5;7.799999;;;;;;;2.04;42.64648;95938.92;;;;
2022/03/28 02:13:57;;;;;;;12.5;7.799999;;;;;;;2.04;42.64648;95938.92;;;;
2022/03/28 02:14:58;;;;;;;14.1;8.450001;;;;;;;1.99;42.875;95931.94;;;;
2022/03/28 02:16:00;;;;;;;14.1;8.450001;;;;;;;1.99;42.875;95931.94;;;;
2022/03/28 02:17:01;;;;;;;14.1;8.450001;;;;;;;1.99;42.875;95931.94;;;;
2022/03/28 02:18:02;;;;;;;14.1;8.450001;;;;;;;1.99;42.875;95931.94;;;;
2022/03/28 02:19:02;;;;;;;14.1;8.450001;;;;;;;1.99;42.875;95931.94;;;;
2022/03/28 02:20:05;;;;;;;14.1;8.450001;;;;;;;1.99;42.875;95931.94;;;;
2022/03/28 02:21:09;;;;;;;14.1;8.450001;;;;;;;1.99;42.875;95931.94;;;;
2022/03/28 02:22:09;;;;;;;14.1;8.450001;;;;;;;1.99;42.875;95931.94;;;;
2022/03/28 02:23:10;;;;;;;14.1;8.450001;;;;;;;1.99;42.875;95931.94;;;;
2022/03/28 02:24:10;;;;;;;14.1;8.450001;;;;;;;1.99;42.875;95931.94;;;;
2022/03/28 02:25:11;;;;;;;11.4;8.25;;;;;;;2.03;42.99512;95930.61;;;;
2022/03/28 02:26:14;;;;;;;11.4;8.25;;;;;;;2.03;42.99512;95930.61;;;;
2022/03/28 02:27:14;;;;;;;11.4;8.25;;;;;;;2.03;42.99512;95930.61;;;;
2022/03/28 02:28:15;;;;;;;11.4;8.25;;;;;;;2.03;42.99512;95930.61;;;;
2022/03/28 02:29:15;;;;;;;11.4;8.25;;;;;;;2.03;42.99512;95930.61;;;;
2022/03/28 02:30:16;;;;;;;11.4;8.25;;;;;;;2.03;42.99512;95930.61;;;;
2022/03/28 02:31:16;;;;;;;11.4;8.25;;;;;;;2.03;42.99512;95930.61;;;;
2022/03/28 02:32:17;;;;;;;11.4;8.25;;;;;;;2.03;42.99512;95930.61;;;;
2022/03/28 02:33:17;;;;;;;11.4;8.25;;;;;;;2.03;42.99512;95930.61;;;;
2022/03/28 02:34:17;;;;;;;11.4;8.25;;;;;;;2.03;42.99512;95930.61;;;;
2022/03/28 02:35:18;;;;;;;11.4;8.25;;;;;;;2.03;42.99512;95930.61;;;;
2022/03/28 02:36:18;;;;;;;14.1;8.699999;;;;;;;1.94;43.22949;95923.1;;;;
2022/03/28 02:37:19;;;;;;;14.1;8.699999;;;;;;;1.94;43.22949;95923.1;;;;
2022/03/28 02:38:19;;;;;;;14.1;8.699999;;;;;;;1.94;43.22949;95923.1;;;;
2022/03/28 02:39:20;;;;;;;14.1;8.699999;;;;;;;1.94;43.22949;95923.1;;;;
2022/03/28 02:40:20;;;;;;;14.1;8.699999;;;;;;;1.94;43.22949;95923.1;;;;
2022/03/28 02:41:21;;;;;;;14.1;8.699999;;;;;;;1.94;43.22949;95923.1;;;;
2022/03/28 02:42:22;;;;;;;14.1;8.699999;;;;;;;1.94;43.22949;95923.1;;;;
2022/03/28 02:43:23;;;;;;;14.1;8.699999;;;;;;;1.94;43.22949;95923.1;;;;
2022/03/28 02:44:23;;;;;;;14.1;8.699999;;;;;;;1.94;43.22949;95923.1;;;;
2022/03/28 02:45:24;;;;;;;14.1;8.699999;;;;;;;1.94;43.22949;95923.1;;;;
2022/03/28 02:46:24;;;;;;;14.1;8.699999;;;;;;;1.94;43.22949;95923.1;;;;
2022/03/28 02:47:25;;;;;;;13.15;8.500001;;;;;;;1.85;43.52734;95920.63;;;;
2022/03/28 02:48:26;;;;;;;13.15;8.500001;;;;;;;1.85;43.52734;95920.63;;;;
2022/03/28 02:49:27;;;;;;;13.15;8.500001;;;;;;;1.85;43.52734;95920.63;;;;
2022/03/28 02:50:27;;;;;;;13.15;8.500001;;;;;;;1.85;43.52734;95920.63;;;;
2022/03/28 02:51:29;;;;;;;13.15;8.500001;;;;;;;1.85;43.52734;95920.63;;;;
2022/03/28 02:52:30;;;;;;;13.15;8.500001;;;;;;;1.85;43.52734;95920.63;;;;
2022/03/28 02:53:31;;;;;;;13.15;8.500001;;;;;;;1.85;43.52734;95920.63;;;;
2022/03/28 02:54:31;;;;;;;13.15;8.500001;;;;;;;1.85;43.52734;95920.63;;;;
2022/03/28 02:55:32;;;;;;;13.15;8.500001;;;;;;;1.85;43.52734;95920.63;;;;
2022/03/28 02:56:33;;;;;;;13.15;8.500001;;;;;;;1.85;43.52734;95920.63;;;;
2022/03/28 02:57:34;;;;;;;14.05;8.65;;;;;;;1.76;43.75098;95916.74;;;;
2022/03/28 02:58:35;;;;;;;14.05;8.65;;;;;;;1.76;43.75098;95916.74;;;;
2022/03/28 02:59:35;;;;;;;14.05;8.65;;;;;;;1.76;43.75098;95916.74;;;;
2022/03/28 03:00:36;;;;;;;14.05;8.65;;;;;;;1.76;43.75098;95916.74;;;;
2022/03/28 03:01:37;;;;;;;14.05;8.65;;;;;;;1.76;43.75098;95916.74;;;;
2022/03/28 03:02:38;;;;;;;14.05;8.65;;;;;;;1.76;43.75098;95916.74;;;;
2022/03/28 03:03:39;;;;;;;14.05;8.65;;;;;;;1.76;43.75098;95916.74;;;;
2022/03/28 03:04:40;;;;;;;14.05;8.65;;;;;;;1.76;43.75098;95916.74;;;;
2022/03/28 03:05:42;;;;;;;14.05;8.65;;;;;;;1.76;43.75098;95916.74;;;;
2022/03/28 03:06:43;;;;;;;14.05;8.65;;;;;;;1.76;43.75098;95916.74;;;;
2022/03/28 03:07:43;;;;;;;14.05;8.65;;;;;;;1.76;43.75098;95916.74;;;;
2022/03/28 03:08:44;;;;;;;11.85;8.350001;;;;;;;1.69;43.97656;95913.46;;;;
2022/03/28 03:09:45;;;;;;;11.85;8.350001;;;;;;;1.69;43.97656;95913.46;;;;
2022/03/28 03:10:47;;;;;;;11.85;8.350001;;;;;;;1.69;43.97656;95913.46;;;;
2022/03/28 03:11:47;;;;;;;11.85;8.350001;;;;;;;1.69;43.97656;95913.46;;;;
2022/03/28 03:12:48;;;;;;;11.85;8.350001;;;;;;;1.69;43.97656;95913.46;;;;
2022/03/28 03:13:49;;;;;;;11.85;8.350001;;;;;;;1.69;43.97656;95913.46;;;;
2022/03/28 03:14:50;;;;;;;11.85;8.350001;;;;;;;1.69;43.97656;95913.46;;;;
2022/03/28 03:15:51;;;;;;;11.85;8.350001;;;;;;;1.69;43.97656;95913.46;;;;
2022/03/28 03:16:51;;;;;;;11.85;8.350001;;;;;;;1.69;43.97656;95913.46;;;;
2022/03/28 03:17:52;;;;;;;11.85;8.350001;;;;;;;1.69;43.97656;95913.46;;;;
2022/03/28 03:18:53;;;;;;;13.95;8.2;;;;;;;1.7;44.19922;95916.47;;;;
2022/03/28 03:19:53;;;;;;;13.95;8.2;;;;;;;1.7;44.19922;95916.47;;;;
2022/03/28 03:20:54;;;;;;;13.95;8.2;;;;;;;1.7;44.19922;95916.47;;;;
2022/03/28 03:21:54;;;;;;;13.95;8.2;;;;;;;1.7;44.19922;95916.47;;;;
2022/03/28 03:22:55;;;;;;;13.95;8.2;;;;;;;1.7;44.19922;95916.47;;;;
2022/03/28 03:23:55;;;;;;;13.95;8.2;;;;;;;1.7;44.19922;95916.47;;;;
2022/03/28 03:24:56;;;;;;;13.95;8.2;;;;;;;1.7;44.19922;95916.47;;;;
2022/03/28 03:25:56;;;;;;;13.95;8.2;;;;;;;1.7;44.19922;95916.47;;;;
2022/03/28 03:26:57;;;;;;;13.95;8.2;;;;;;;1.7;44.19922;95916.47;;;;
2022/03/28 03:27:57;;;;;;;13.95;8.2;;;;;;;1.7;44.19922;95916.47;;;;
2022/03/28 03:28:58;;;;;;;13.95;8.2;;;;;;;1.7;44.19922;95916.47;;;;
2022/03/28 03:29:59;;;;;;;17.85;8.749999;;;;;;;1.65;44.32129;95914.81;;;;
2022/03/28 03:30:59;;;;;;;17.85;8.749999;;;;;;;1.65;44.32129;95914.81;;;;
2022/03/28 03:32:00;;;;;;;17.85;8.749999;;;;;;;1.65;44.32129;95914.81;;;;
2022/03/28 03:33:00;;;;;;;17.85;8.749999;;;;;;;1.65;44.32129;95914.81;;;;
2022/03/28 03:34:01;;;;;;;17.85;8.749999;;;;;;;1.65;44.32129;95914.81;;;;
2022/03/28 03:35:01;;;;;;;17.85;8.749999;;;;;;;1.65;44.32129;95914.81;;;;
2022/03/28 03:36:02;;;;;;;17.85;8.749999;;;;;;;1.65;44.32129;95914.81;;;;
2022/03/28 03:37:04;;;;;;;17.85;8.749999;;;;;;;1.65;44.32129;95914.81;;;;
2022/03/28 03:38:04;;;;;;;17.85;8.749999;;;;;;;1.65;44.32129;95914.81;;;;
2022/03/28 03:39:05;;;;;;;17.85;8.749999;;;;;;;1.65;44.32129;95914.81;;;;
2022/03/28 03:40:06;;;;;;;17.85;8.749999;;;;;;;1.65;44.32129;95914.81;;;;
2022/03/28 03:41:08;;;;;;;17.85;8.749999;;;;;;;1.65;44.32129;95914.81;;;;
2022/03/28 03:42:11;;;;;;;17.85;8.749999;;;;;;;1.65;44.32129;95914.81;;;;
2022/03/28 03:43:12;;;;;;;17.85;8.749999;;;;;;;1.65;44.32129;95914.81;;;;
2022/03/28 03:44:12;;;;;;;17.85;8.749999;;;;;;;1.65;44.32129;95914.81;;;;
2022/03/28 03:45:14;;;;;;;17.85;8.749999;;;;;;;1.65;44.32129;95914.81;;;;
2022/03/28 03:46:15;;;;;;;17.85;8.749999;;;;;;;1.65;44.32129;95914.81;;;;
2022/03/28 03:47:16;;;;;;;17.85;8.749999;;;;;;;1.65;44.32129;95914.81;;;;
2022/03/28 03:48:16;;;;;;;17.85;8.749999;;;;;;;1.65;44.32129;95914.81;;;;
2022/03/28 03:49:17;;;;;;;17.85;8.749999;;;;;;;1.65;44.32129;95914.81;;;;
2022/03/28 03:50:17;;;;;;;17.85;8.749999;;;;;;;1.65;44.32129;95914.81;;;;
2022/03/28 03:51:18;;;;;;;16.05;8.450001;;;;;;;1.4;44.88672;95921.61;;;;
2022/03/28 03:52:18;;;;;;;16.05;8.450001;;;;;;;1.4;44.88672;95921.61;;;;
2022/03/28 03:53:19;;;;;;;16.05;8.450001;;;;;;;1.4;44.88672;95921.61;;;;
2022/03/28 03:54:20;;;;;;;16.05;8.450001;;;;;;;1.4;44.88672;95921.61;;;;
2022/03/28 03:55:20;;;;;;;16.05;8.450001;;;;;;;1.4;44.88672;95921.61;;;;
2022/03/28 03:56:21;;;;;;;16.05;8.450001;;;;;;;1.4;44.88672;95921.61;;;;
2022/03/28 03:57:22;;;;;;;16.05;8.450001;;;;;;;1.4;44.88672;95921.61;;;;
2022/03/28 03:58:22;;;;;;;16.05;8.450001;;;;;;;1.4;44.88672;95921.61;;;;
2022/03/28 03:59:23;;;;;;;16.05;8.450001;;;;;;;1.4;44.88672;95921.61;;;;
2022/03/28 04:00:23;;;;;;;16.05;8.450001;;;;;;;1.4;44.88672;95921.61;;;;
2022/03/28 04:01:26;;;;;;;12.45;8.549999;;;;;;;1.28;45.0752;95916.17;;;;
2022/03/28 04:02:26;;;;;;;12.45;8.549999;;;;;;;1.28;45.0752;95916.17;;;;
2022/03/28 04:03:27;;;;;;;12.45;8.549999;;;;;;;1.28;45.0752;95916.17;;;;
2022/03/28 04:04:27;;;;;;;12.45;8.549999;;;;;;;1.28;45.0752;95916.17;;;;
2022/03/28 04:05:28;;;;;;;12.45;8.549999;;;;;;;1.28;45.0752;95916.17;;;;
2022/03/28 04:06:28;;;;;;;12.45;8.549999;;;;;;;1.28;45.0752;95916.17;;;;
2022/03/28 04:07:29;;;;;;;12.45;8.549999;;;;;;;1.28;45.0752;95916.17;;;;
2022/03/28 04:08:29;;;;;;;12.45;8.549999;;;;;;;1.28;45.0752;95916.17;;;;
2022/03/28 04:09:30;;;;;;;12.45;8.549999;;;;;;;1.28;45.0752;95916.17;;;;
2022/03/28 04:10:31;;;;;;;12.45;8.549999;;;;;;;1.28;45.0752;95916.17;;;;
2022/03/28 04:11:32;;;;;;;12.45;8.549999;;;;;;;1.28;45.0752;95916.17;;;;
2022/03/28 04:12:32;;;;;;;12.45;8.549999;;;;;;;1.28;45.0752;95916.17;;;;
2022/03/28 04:13:33;;;;;;;12.45;8.549999;;;;;;;1.28;45.0752;95916.17;;;;
2022/03/28 04:14:34;;;;;;;12.45;8.549999;;;;;;;1.28;45.0752;95916.17;;;;
2022/03/28 04:15:35;;;;;;;12.45;8.549999;;;;;;;1.28;45.0752;95916.17;;;;
2022/03/28 04:16:35;;;;;;;12.45;8.549999;;;;;;;1.28;45.0752;95916.17;;;;
2022/03/28 04:17:36;;;;;;;12.45;8.549999;;;;;;;1.28;45.0752;95916.17;;;;
2022/03/28 04:18:40;;;;;;;12.45;8.549999;;;;;;;1.28;45.0752;95916.17;;;;
2022/03/28 04:19:41;;;;;;;12.45;8.549999;;;;;;;1.28;45.0752;95916.17;;;;
2022/03/28 04:20:42;;;;;;;12.45;8.549999;;;;;;;1.28;45.0752;95916.17;;;;
2022/03/28 04:21:43;;;;;;;12.45;8.549999;;;;;;;1.28;45.0752;95916.17;;;;
2022/03/28 04:22:45;;;;;;;15.85;7.75;;;;;;;1.17;45.3584;95903.71;;;;
2022/03/28 04:23:46;;;;;;;15.85;7.75;;;;;;;1.17;45.3584;95903.71;;;;
2022/03/28 04:24:46;;;;;;;15.85;7.75;;;;;;;1.17;45.3584;95903.71;;;;
2022/03/28 04:25:47;;;;;;;15.85;7.75;;;;;;;1.17;45.3584;95903.71;;;;
2022/03/28 04:26:48;;;;;;;15.85;7.75;;;;;;;1.17;45.3584;95903.71;;;;
2022/03/28 04:27:48;;;;;;;15.85;7.75;;;;;;;1.17;45.3584;95903.71;;;;
2022/03/28 04:28:49;;;;;;;15.85;7.75;;;;;;;1.17;45.3584;95903.71;;;;
2022/03/28 04:29:49;;;;;;;15.85;7.75;;;;;;;1.17;45.3584;95903.71;;;;
2022/03/28 04:30:50;;;;;;;15.85;7.75;;;;;;;1.17;45.3584;95903.71;;;;
2022/03/28 04:31:51;;;;;;;15.85;7.75;;;;;;;1.17;45.3584;95903.71;;;;
2022/03/28 04:32:51;;;;;;;15.85;7.75;;;;;;;1.17;45.3584;95903.71;;;;
2022/03/28 04:33:52;;;;;;;10.9;8.050002;;;;;;;1.14;45.5127;95910.66;;;;
2022/03/28 04:34:52;;;;;;;10.9;8.050002;;;;;;;1.14;45.5127;95910.66;;;;
2022/03/28 04:35:53;;;;;;;10.9;8.050002;;;;;;;1.14;45.5127;95910.66;;;;
2022/03/28 04:36:53;;;;;;;10.9;8.050002;;;;;;;1.14;45.5127;95910.66;;;;
2022/03/28 04:37:54;;;;;;;10.9;8.050002;;;;;;;1.14;45.5127;95910.66;;;;
2022/03/28 04:38:54;;;;;;;10.9;8.050002;;;;;;;1.14;45.5127;95910.66;;;;
2022/03/28 04:39:55;;;;;;;10.9;8.050002;;;;;;;1.14;45.5127;95910.66;;;;
2022/03/28 04:40:55;;;;;;;10.9;8.050002;;;;;;;1.14;45.5127;95910.66;;;;
2022/03/28 04:41:56;;;;;;;10.9;8.050002;;;;;;;1.14;45.5127;95910.66;;;;
2022/03/28 04:42:56;;;;;;;10.9;8.050002;;;;;;;1.14;45.5127;95910.66;;;;
2022/03/28 04:43:57;;;;;;;10.9;8.050002;;;;;;;1.14;45.5127;95910.66;;;;
2022/03/28 04:44:58;;;;;;;10.9;8.050002;;;;;;;1.14;45.5127;95910.66;;;;
2022/03/28 04:45:59;;;;;;;10.9;8.050002;;;;;;;1.14;45.5127;95910.66;;;;
2022/03/28 04:46:59;;;;;;;10.9;8.050002;;;;;;;1.14;45.5127;95910.66;;;;
2022/03/28 04:48:00;;;;;;;10.9;8.050002;;;;;;;1.14;45.5127;95910.66;;;;
2022/03/28 04:49:02;;;;;;;10.9;8.050002;;;;;;;1.14;45.5127;95910.66;;;;
2022/03/28 04:50:02;;;;;;;10.9;8.050002;;;;;;;1.14;45.5127;95910.66;;;;
2022/03/28 04:51:04;;;;;;;10.9;8.050002;;;;;;;1.14;45.5127;95910.66;;;;
2022/03/28 04:52:05;;;;;;;10.9;8.050002;;;;;;;1.14;45.5127;95910.66;;;;
2022/03/28 04:53:05;;;;;;;10.9;8.050002;;;;;;;1.14;45.5127;95910.66;;;;
2022/03/28 04:54:06;;;;;;;10.9;8.050002;;;;;;;1.14;45.5127;95910.66;;;;
2022/03/28 04:55:06;;;;;;;14;8.65;;;;;;;0.9;45.94238;95910.1;;;;
2022/03/28 04:56:08;;;;;;;14;8.65;;;;;;;0.9;45.94238;95910.1;;;;
2022/03/28 04:57:09;;;;;;;14;8.65;;;;;;;0.9;45.94238;95910.1;;;;
2022/03/28 04:58:09;;;;;;;14;8.65;;;;;;;0.9;45.94238;95910.1;;;;
2022/03/28 04:59:10;;;;;;;14;8.65;;;;;;;0.9;45.94238;95910.1;;;;
2022/03/28 05:00:11;;;;;;;14;8.65;;;;;;;0.9;45.94238;95910.1;;;;
2022/03/28 05:01:12;;;;;;;14;8.65;;;;;;;0.9;45.94238;95910.1;;;;
2022/03/28 05:02:14;;;;;;;14;8.65;;;;;;;0.9;45.94238;95910.1;;;;
2022/03/28 05:03:15;;;;;;;14;8.65;;;;;;;0.9;45.94238;95910.1;;;;
2022/03/28 05:04:15;;;;;;;14;8.65;;;;;;;0.9;45.94238;95910.1;;;;
2022/03/28 05:05:16;;;;;;;14;8.65;;;;;;;0.9;45.94238;95910.1;;;;
2022/03/28 05:06:16;;;;;;;15.4;9;;;;;;;0.83;46.125;95910.83;;;;
2022/03/28 05:07:17;;;;;;;15.4;9;;;;;;;0.83;46.125;95910.83;;;;
2022/03/28 05:08:25;;;;;;;15.4;9;;;;;;;0.83;46.125;95910.83;;;;
2022/03/28 05:09:26;;;;;;;15.4;9;;;;;;;0.83;46.125;95910.83;;;;
2022/03/28 05:10:26;;;;;;;15.4;9;;;;;;;0.83;46.125;95910.83;;;;
2022/03/28 05:11:28;;;;;;;15.4;9;;;;;;;0.83;46.125;95910.83;;;;
2022/03/28 05:12:28;;;;;;;15.4;9;;;;;;;0.83;46.125;95910.83;;;;
2022/03/28 05:13:29;;;;;;;15.4;9;;;;;;;0.83;46.125;95910.83;;;;
2022/03/28 05:14:30;;;;;;;15.4;9;;;;;;;0.83;46.125;95910.83;;;;
2022/03/28 05:15:31;;;;;;;15.4;9;;;;;;;0.83;46.125;95910.83;;;;
2022/03/28 05:16:32;;;;;;;14.25;8.550001;;;;;;;0.87;46.37012;95909.59;;;;
2022/03/28 05:17:32;;;;;;;14.25;8.550001;;;;;;;0.87;46.37012;95909.59;;;;
2022/03/28 05:18:33;;;;;;;14.25;8.550001;;;;;;;0.87;46.37012;95909.59;;;;
2022/03/28 05:19:33;;;;;;;14.25;8.550001;;;;;;;0.87;46.37012;95909.59;;;;
2022/03/28 05:20:34;;;;;;;14.25;8.550001;;;;;;;0.87;46.37012;95909.59;;;;
2022/03/28 05:21:34;;;;;;;14.25;8.550001;;;;;;;0.87;46.37012;95909.59;;;;
2022/03/28 05:22:35;;;;;;;14.25;8.550001;;;;;;;0.87;46.37012;95909.59;;;;
2022/03/28 05:23:35;;;;;;;14.25;8.550001;;;;;;;0.87;46.37012;95909.59;;;;
2022/03/28 05:24:36;;;;;;;14.25;8.550001;;;;;;;0.87;46.37012;95909.59;;;;
2022/03/28 05:25:36;;;;;;;14.25;8.550001;;;;;;;0.87;46.37012;95909.59;;;;
2022/03/28 05:26:37;;;;;;;14.25;8.550001;;;;;;;0.87;46.37012;95909.59;;;;
2022/03/28 05:27:37;;;;;;;14.25;8.550001;;;;;;;0.87;46.37012;95909.59;;;;
2022/03/28 05:28:42;;;;;;;14.25;8.550001;;;;;;;0.87;46.37012;95909.59;;;;
2022/03/28 05:29:42;;;;;;;14.25;8.550001;;;;;;;0.87;46.37012;95909.59;;;;
2022/03/28 05:30:44;;;;;;;14.25;8.550001;;;;;;;0.87;46.37012;95909.59;;;;
2022/03/28 05:31:45;;;;;;;14.25;8.550001;;;;;;;0.87;46.37012;95909.59;;;;
2022/03/28 05:32:45;;;;;;;14.25;8.550001;;;;;;;0.87;46.37012;95909.59;;;;
2022/03/28 05:33:46;;;;;;;14.25;8.550001;;;;;;;0.87;46.37012;95909.59;;;;
2022/03/28 05:34:46;;;;;;;14.25;8.550001;;;;;;;0.87;46.37012;95909.59;;;;
2022/03/28 05:35:47;;;;;;;14.25;8.550001;;;;;;;0.87;46.37012;95909.59;;;;
2022/03/28 05:36:47;;;;;;;14.25;8.550001;;;;;;;0.87;46.37012;95909.59;;;;
2022/03/28 05:37:48;;;;;;;25.35;10.05;;;;;;;1.27;46.39355;95901.23;;;;